Time;durP1;ratioP1;P1;durP2;ratioP2;P2;SDS_P1;SDS_P2;PMS_P1;PMS_P2;Temp;Humidity;BMP_temperature;BMP_pressure;BME280_temperature;BME280_humidity;BME280_pressure;Samples;Min_cycle;Max_cycle;Signal;HPM_P1;HPM_P2
2022/12/13 09:28:28;;;;;;;313.77;189.85;;;;;;;13.93;38.17;92475.50;4947805;28;20411;-93
2022/12/13 09:34:15;;;;;;;289.50;171.85;;;;;;;13.94;38.81;92462.66;4980122;23;20057;-90
2022/12/13 09:36:41;;;;;;;282.27;161.65;;;;;;;13.86;38.62;92469.84;4967092;28;20038;-85
2022/12/13 09:39:06;;;;;;;272.90;163.02;;;;;;;13.84;39.15;92464.97;4966207;28;20416;-85
2022/12/13 09:41:39;;;;;;;255.70;145.00;;;;;;;13.85;38.53;92468.41;4983065;28;20373;-90
2022/12/13 09:44:09;;;;;;;250.82;143.40;;;;;;;13.79;38.47;92454.13;4987159;28;20046;-89
2022/12/13 09:46:36;;;;;;;253.27;139.57;;;;;;;13.81;38.93;92462.50;4986547;28;20038;-88
2022/12/13 09:49:03;;;;;;;234.65;134.57;;;;;;;13.82;38.72;92453.13;4977403;28;20043;-87
2022/12/13 09:51:29;;;;;;;211.82;127.22;;;;;;;13.77;38.81;92456.59;4978981;28;20039;-85
2022/12/13 09:53:55;;;;;;;228.10;124.50;;;;;;;13.76;38.75;92458.56;4992650;28;20046;-89
2022/12/13 09:56:22;;;;;;;223.85;118.25;;;;;;;13.84;39.07;92453.34;4974204;28;20042;-87
2022/12/13 09:58:49;;;;;;;225.10;120.30;;;;;;;13.75;39.08;92456.38;5005934;28;20053;-91
2022/12/13 10:01:16;;;;;;;231.13;118.35;;;;;;;13.77;39.27;92453.88;4968607;28;20042;-91
2022/12/13 10:03:45;;;;;;;207.15;114.82;;;;;;;13.78;38.95;92447.94;4975273;28;20042;-91
2022/12/13 10:06:14;;;;;;;194.65;108.20;;;;;;;13.80;39.06;92448.19;4971747;28;20627;-88
2022/12/13 10:08:47;;;;;;;208.80;106.65;;;;;;;13.75;39.49;92450.94;4981421;28;20047;-85
2022/12/13 10:11:13;;;;;;;203.80;107.72;;;;;;;13.71;39.13;92443.78;4973475;28;20608;-88
2022/12/13 10:14:02;;;;;;;194.18;104.00;;;;;;;13.77;39.06;92438.31;4993224;28;20053;-86
2022/12/13 10:16:28;;;;;;;246.90;144.52;;;;;;;13.67;39.11;92437.88;4983616;28;20062;-95
2022/12/13 10:18:53;;;;;;;273.70;155.70;;;;;;;13.72;38.98;92437.13;4989133;28;20051;-90
2022/12/13 10:21:26;;;;;;;294.23;163.07;;;;;;;13.73;39.23;92427.72;4984563;28;20047;-89
2022/12/13 10:23:52;;;;;;;275.38;158.32;;;;;;;13.67;39.45;92426.28;4981620;28;20030;-90
2022/12/13 10:26:17;;;;;;;274.75;157.25;;;;;;;13.70;39.37;92426.00;4970341;28;20142;-87
2022/12/13 10:28:43;;;;;;;269.88;147.02;;;;;;;13.70;39.37;92420.59;5000274;28;20050;-87
2022/12/13 10:31:15;;;;;;;268.52;141.27;;;;;;;13.76;39.08;92427.97;4940959;28;20069;-91
2022/12/13 10:33:40;;;;;;;250.07;139.65;;;;;;;13.70;39.11;92425.28;4973071;28;20038;-89
2022/12/13 10:36:28;;;;;;;253.68;136.55;;;;;;;13.76;39.09;92422.53;4968872;28;20494;-85
2022/12/13 10:38:53;;;;;;;247.43;132.02;;;;;;;13.75;38.97;92419.06;4974258;28;20121;-88
2022/12/13 10:41:32;;;;;;;234.88;132.27;;;;;;;13.75;39.03;92415.63;4995734;28;20740;-92
2022/12/13 10:44:18;;;;;;;239.40;124.80;;;;;;;13.70;39.05;92412.44;4971001;28;20054;-87
2022/12/13 10:47:08;;;;;;;236.30;123.68;;;;;;;13.77;39.03;92411.16;4984274;28;20035;-93
2022/12/13 10:49:45;;;;;;;229.90;124.55;;;;;;;13.70;39.06;92401.56;4963633;28;20034;-88
2022/12/13 10:52:25;;;;;;;225.07;119.30;;;;;;;13.72;39.06;92409.94;4949048;28;20038;-90
2022/12/13 10:54:51;;;;;;;203.00;115.43;;;;;;;13.80;39.29;92415.59;4980177;28;20097;-91
2022/12/13 10:57:16;;;;;;;220.00;120.60;;;;;;;13.69;39.61;92408.25;4987162;28;20045;-91
2022/12/13 10:59:42;;;;;;;221.73;121.85;;;;;;;13.72;39.55;92406.50;4940317;28;20066;-88
2022/12/13 11:02:35;;;;;;;226.55;121.75;;;;;;;13.75;39.50;92404.75;4955586;28;20074;-91
2022/12/13 11:05:26;;;;;;;232.43;130.05;;;;;;;13.70;39.72;92406.25;4983141;28;20104;-91
2022/12/13 11:07:54;;;;;;;;;;;;;;;13.74;39.42;92395.88;4957628;28;20045;-91
2022/12/13 11:10:19;;;;;;;231.82;124.65;;;;;;;13.68;39.20;92390.47;4985808;28;20375;-93
2022/12/13 11:12:45;;;;;;;227.20;121.72;;;;;;;13.67;39.33;92396.41;4987390;28;20076;-91
2022/12/13 11:15:16;;;;;;;224.23;124.90;;;;;;;13.60;39.58;92395.00;4968633;28;20065;-90
2022/12/13 11:17:48;;;;;;;222.70;119.30;;;;;;;13.67;39.57;92382.81;4967775;28;20446;-90
2022/12/13 11:20:17;;;;;;;225.27;116.18;;;;;;;13.63;39.52;92380.41;4955837;28;20069;-91
2022/12/13 11:22:42;;;;;;;212.57;116.47;;;;;;;13.67;39.38;92382.81;4984152;28;20036;-91
2022/12/13 11:25:25;;;;;;;200.18;110.28;;;;;;;13.68;39.19;92370.72;4954654;28;20050;-90
2022/12/13 11:28:29;;;;;;;192.70;107.75;;;;;;;13.71;39.51;92372.44;4956857;28;20078;-89
2022/12/13 11:30:55;;;;;;;193.70;106.28;;;;;;;13.67;39.69;92377.41;4987127;28;20054;-91
2022/12/13 11:33:48;;;;;;;183.45;103.63;;;;;;;13.64;39.89;92373.72;4969978;28;20109;-90
2022/12/13 11:36:23;;;;;;;173.63;95.43;;;;;;;13.65;39.76;92382.59;4985885;28;20405;-91
2022/12/13 11:38:58;;;;;;;177.40;95.35;;;;;;;13.65;39.44;92390.75;4967660;28;20035;-93
2022/12/13 11:41:31;;;;;;;159.80;89.90;;;;;;;13.65;39.39;92379.88;4983434;28;20051;-90
2022/12/13 11:43:59;;;;;;;160.05;92.57;;;;;;;13.62;39.79;92375.47;4969766;28;20046;-91
2022/12/13 11:46:35;;;;;;;159.88;87.53;;;;;;;13.62;39.82;92370.06;4953465;28;20027;-91
2022/12/13 11:49:03;;;;;;;98.15;52.38;;;;;;;13.48;36.15;92371.13;4938754;28;20051;-92
2022/12/13 11:51:40;;;;;;;153.18;63.80;;;;;;;13.43;37.49;92361.03;4953865;28;20580;-89
2022/12/13 11:54:16;;;;;;;133.77;65.00;;;;;;;13.45;37.18;92375.56;4962131;28;20046;-92
2022/12/13 11:56:42;;;;;;;120.57;60.05;;;;;;;13.54;37.92;92372.56;4983610;28;20074;-91
2022/12/13 11:59:34;;;;;;;111.05;61.25;;;;;;;13.53;38.64;92371.09;4983971;28;20077;-90
2022/12/13 12:02:32;;;;;;;100.63;56.45;;;;;;;13.62;39.02;92386.34;4987926;28;20038;-90
2022/12/13 12:04:58;;;;;;;102.18;58.03;;;;;;;13.57;39.04;92379.69;4936861;28;20050;-90
2022/12/13 12:07:35;;;;;;;97.75;57.17;;;;;;;13.58;39.09;92380.44;4947916;28;20031;-93
2022/12/13 12:10:15;;;;;;;123.30;61.05;;;;;;;13.59;39.42;92371.06;4970007;28;20098;-92
2022/12/13 12:12:44;;;;;;;125.03;60.70;;;;;;;13.63;39.17;92371.53;4966745;28;20050;-92
2022/12/13 12:15:30;;;;;;;165.30;84.40;;;;;;;13.64;39.24;92368.28;4930028;28;20039;-91
2022/12/13 12:17:55;;;;;;;111.90;62.88;;;;;;;13.66;39.20;92376.66;4934439;28;20626;-91
2022/12/13 12:20:28;;;;;;;131.73;69.32;;;;;;;13.62;39.48;92370.06;4937082;28;20047;-91
2022/12/13 12:23:05;;;;;;;115.82;62.40;;;;;;;13.65;39.17;92377.16;4967944;28;20133;-92
2022/12/13 12:25:49;;;;;;;107.60;60.40;;;;;;;13.65;39.41;92372.47;4989598;28;20092;-92
2022/12/13 12:28:18;;;;;;;115.53;63.90;;;;;;;13.62;39.24;92367.34;4975712;28;20043;-94
2022/12/13 12:30:57;;;;;;;122.95;66.57;;;;;;;13.69;39.46;92364.78;4961418;28;20043;-93
2022/12/13 12:33:44;;;;;;;145.25;69.93;;;;;;;13.67;39.32;92364.56;4955005;28;20043;-93
2022/12/13 12:36:36;;;;;;;156.00;81.20;;;;;;;13.65;39.53;92355.44;4982204;28;20039;-93
2022/12/13 12:39:13;;;;;;;151.98;78.78;;;;;;;13.66;39.50;92348.75;4945918;28;20061;-92
2022/12/13 12:42:08;;;;;;;143.32;75.93;;;;;;;13.68;39.35;92343.56;4981476;28;20058;-94
2022/12/13 12:44:52;;;;;;;137.77;72.93;;;;;;;13.70;39.14;92351.94;4957182;28;20034;-89
2022/12/13 12:47:44;;;;;;;91.05;50.58;;;;;;;13.50;36.65;92353.09;4965191;28;20151;-91
2022/12/13 12:50:31;;;;;;;116.85;62.58;;;;;;;13.50;36.35;92357.78;4969735;28;20046;-90
2022/12/13 12:53:06;;;;;;;204.02;107.47;;;;;;;13.51;36.97;92353.81;4968949;28;20122;-90
2022/12/13 12:55:46;;;;;;;150.90;86.35;;;;;;;13.49;37.59;92348.91;4973022;28;20039;-91
2022/12/13 12:58:30;;;;;;;163.90;87.10;;;;;;;13.58;38.00;92351.31;4963520;28;20041;-93
2022/12/13 13:01:26;;;;;;;195.50;101.63;;;;;;;13.57;38.52;92347.13;4988065;28;20042;-90
2022/12/13 13:03:52;;;;;;;183.90;93.22;;;;;;;13.56;38.59;92347.63;4974084;28;20568;-93
2022/12/13 13:06:23;;;;;;;167.60;89.25;;;;;;;13.61;38.43;92355.72;4939604;28;20047;-92
2022/12/13 13:09:04;;;;;;;149.82;81.65;;;;;;;13.57;38.75;92351.81;4972387;28;20051;-91
2022/12/13 13:11:33;;;;;;;140.95;79.57;;;;;;;13.60;38.81;92361.66;4978519;28;20125;-90
2022/12/13 13:14:01;;;;;;;137.20;74.55;;;;;;;13.68;39.25;92351.72;4968682;28;20540;-91
2022/12/13 13:16:34;;;;;;;135.60;72.05;;;;;;;13.65;39.05;92358.88;4968379;28;20119;-91
2022/12/13 13:19:12;;;;;;;132.90;69.65;;;;;;;13.68;39.22;92359.88;4963635;28;20050;-91
2022/12/13 13:21:54;;;;;;;168.27;87.53;;;;;;;13.66;39.28;92362.34;4970673;28;20182;-90
2022/12/13 13:24:26;;;;;;;204.63;110.85;;;;;;;13.64;39.26;92357.41;4945791;28;20050;-93
2022/12/13 13:26:57;;;;;;;194.75;116.03;;;;;;;13.69;39.32;92361.34;4931180;29;20697;-89
2022/12/13 13:29:25;;;;;;;;;;;;;;;13.70;39.14;92362.81;4932471;29;20051;-90
2022/12/13 13:31:57;;;;;;;239.10;121.65;;;;;;;13.68;39.25;92359.88;4940689;28;20014;-90
2022/12/13 13:34:25;;;;;;;213.45;116.03;;;;;;;13.70;39.19;92358.13;4925957;29;20104;-90
2022/12/13 13:36:52;;;;;;;209.45;104.63;;;;;;;13.77;39.07;92378.56;4945938;28;20043;-90
2022/12/13 13:39:36;;;;;;;196.45;104.93;;;;;;;13.79;39.19;92359.06;4935190;29;20051;-89
2022/12/13 13:42:08;;;;;;;200.07;103.75;;;;;;;13.78;39.25;92366.47;4918306;29;20047;-89
2022/12/13 13:44:49;;;;;;;179.50;99.95;;;;;;;13.80;39.42;92374.84;4925796;29;20047;-93
2022/12/13 13:47:21;;;;;;;260.75;162.63;;;;;;;13.80;39.00;92371.41;4926034;28;20048;-93
2022/12/13 13:50:09;;;;;;;170.55;94.78;;;;;;;13.78;39.51;92371.16;4937004;29;20051;-93
2022/12/13 13:53:12;;;;;;;178.68;93.55;;;;;;;13.79;39.41;92373.38;4934147;29;20055;-91
2022/12/13 13:56:07;;;;;;;172.57;93.88;;;;;;;13.86;39.13;92382.94;4917495;29;20039;-90
2022/12/13 13:58:56;;;;;;;143.20;78.13;;;;;;;13.88;39.32;92381.19;4966931;28;20134;-91
2022/12/13 14:01:43;;;;;;;160.35;83.28;;;;;;;13.91;39.65;92369.31;4947128;28;20059;-89
2022/12/13 14:04:45;;;;;;;169.45;82.93;;;;;;;13.87;39.56;92373.53;4976317;28;20044;-89
2022/12/13 14:07:29;;;;;;;202.35;100.05;;;;;;;13.83;39.65;92379.28;4982747;28;20048;-93
2022/12/13 14:10:19;;;;;;;159.32;84.50;;;;;;;13.80;39.47;92376.81;4985974;28;20047;-94
2022/12/13 14:12:55;;;;;;;180.52;82.50;;;;;;;13.81;39.60;92357.31;4971196;28;20110;-93
2022/12/13 14:15:43;;;;;;;157.50;84.82;;;;;;;13.77;39.04;92381.28;4967384;28;20054;-93
2022/12/13 14:18:52;;;;;;;184.25;100.68;;;;;;;13.76;39.02;92376.34;4948825;28;20469;-93
2022/12/13 14:21:54;;;;;;;206.77;104.18;;;;;;;13.76;39.28;92382.53;4970344;28;21190;-96
2022/12/13 14:24:38;;;;;;;180.40;92.88;;;;;;;13.74;39.35;92393.16;4952603;28;20047;-94
2022/12/13 14:27:33;;;;;;;172.20;96.28;;;;;;;13.70;39.52;92385.28;4966828;28;20130;-93
2022/12/13 14:29:58;;;;;;;175.43;97.40;;;;;;;13.69;39.48;92391.94;4994313;28;20094;-92
2022/12/13 14:32:28;;;;;;;223.30;116.53;;;;;;;13.73;39.57;92391.69;4954247;28;20633;-91
2022/12/13 14:35:00;;;;;;;213.83;117.00;;;;;;;13.77;39.63;92381.28;4987841;28;20456;-94
2022/12/13 14:37:36;;;;;;;211.30;109.90;;;;;;;13.75;39.44;92386.47;4969133;28;21107;-91
2022/12/13 14:40:23;;;;;;;181.05;98.68;;;;;;;13.79;39.53;92384.25;4977034;28;20097;-93
2022/12/13 14:42:52;;;;;;;193.35;101.28;;;;;;;13.81;39.42;92387.19;4958350;28;20438;-93
2022/12/13 14:45:25;;;;;;;191.25;97.82;;;;;;;13.83;39.35;92390.13;4944839;28;20039;-92
2022/12/13 14:47:53;;;;;;;189.70;97.82;;;;;;;13.80;39.64;92382.25;4958092;28;20042;-90
2022/12/13 14:50:19;;;;;;;179.82;95.50;;;;;;;13.78;39.70;92392.88;4943359;28;20070;-93
2022/12/13 14:52:44;;;;;;;191.95;93.43;;;;;;;13.73;39.57;92389.69;4977830;28;20046;-91
2022/12/13 14:55:30;;;;;;;169.23;91.00;;;;;;;13.80;39.34;92393.13;4941627;28;20051;-92
2022/12/13 14:57:57;;;;;;;161.63;81.93;;;;;;;13.77;39.52;92399.56;4949285;28;20062;-92
2022/12/13 15:00:31;;;;;;;171.40;89.93;;;;;;;13.75;39.63;92393.91;4967878;28;20054;-91
2022/12/13 15:03:03;;;;;;;156.98;80.43;;;;;;;13.86;39.65;92399.97;4956613;28;20039;-92
2022/12/13 15:05:33;;;;;;;167.48;85.97;;;;;;;13.75;39.84;92394.63;4950952;28;20044;-87
2022/12/13 15:07:58;;;;;;;146.67;75.27;;;;;;;13.80;39.80;92396.56;4957911;28;20075;-92
2022/12/13 15:10:32;;;;;;;170.70;77.10;;;;;;;13.80;40.02;92396.56;4984039;28;20038;-93
2022/12/13 15:12:59;;;;;;;155.63;77.32;;;;;;;13.76;39.46;92398.09;4972664;28;20057;-90
2022/12/13 15:15:35;;;;;;;195.32;93.32;;;;;;;13.71;40.00;92396.88;4981950;28;20046;-89
2022/12/13 15:18:05;;;;;;;168.07;81.55;;;;;;;13.75;39.67;92404.75;4974314;28;20504;-89
2022/12/13 15:20:31;;;;;;;180.82;86.28;;;;;;;13.81;39.82;92402.75;4971511;28;20444;-90
2022/12/13 15:23:01;;;;;;;254.00;136.35;;;;;;;13.77;39.95;92403.00;4983917;28;20141;-86
2022/12/13 15:25:36;;;;;;;219.73;119.40;;;;;;;13.73;39.62;92411.44;4988644;28;20164;-88
2022/12/13 15:28:03;;;;;;;238.05;126.78;;;;;;;13.70;39.66;92404.28;4987885;28;20037;-88
2022/12/13 15:30:29;;;;;;;246.75;126.97;;;;;;;13.76;39.67;92409.69;4968810;28;20053;-91
2022/12/13 15:33:02;;;;;;;207.52;117.47;;;;;;;13.76;39.54;92408.94;4950448;28;20501;-93
2022/12/13 15:35:28;;;;;;;208.63;110.05;;;;;;;13.69;39.12;92391.22;4915043;29;20055;-91
2022/12/13 15:37:53;;;;;;;201.15;104.65;;;;;;;13.74;39.41;92398.59;4953574;28;20149;-93
2022/12/13 15:40:19;;;;;;;218.45;105.82;;;;;;;13.73;39.49;92402.53;4931158;28;20042;-87
2022/12/13 15:42:47;;;;;;;216.73;108.80;;;;;;;13.70;39.51;92404.28;4919070;29;20070;-92
2022/12/13 15:45:21;;;;;;;207.75;105.85;;;;;;;13.72;39.33;92401.06;4934199;28;20476;-88
2022/12/13 15:47:47;;;;;;;203.15;104.75;;;;;;;13.71;39.53;92405.75;4949591;28;20433;-88
2022/12/13 15:50:33;;;;;;;190.40;99.72;;;;;;;13.70;39.83;92400.84;4949093;28;20151;-91
2022/12/13 15:53:02;;;;;;;197.63;97.88;;;;;;;13.70;39.83;92404.28;4918725;29;20046;-91
2022/12/13 15:55:32;;;;;;;197.23;95.70;;;;;;;13.69;39.88;92402.81;4913442;28;20040;-90
2022/12/13 15:57:59;;;;;;;188.02;96.20;;;;;;;13.77;39.84;92408.44;4930856;28;20082;-92
2022/12/13 16:00:29;;;;;;;192.27;93.90;;;;;;;13.77;39.81;92397.59;4918359;28;20058;-87
2022/12/13 16:03:00;;;;;;;184.63;97.10;;;;;;;13.79;39.76;92395.09;4978308;28;20043;-88
2022/12/13 16:05:30;;;;;;;191.48;92.45;;;;;;;13.85;39.59;92395.81;4946344;28;20434;-90
2022/12/13 16:07:57;;;;;;;179.93;94.15;;;;;;;13.77;39.77;92396.84;4937039;28;20047;-90
2022/12/13 16:10:23;;;;;;;205.95;89.97;;;;;;;13.78;39.34;92399.06;4913713;28;20047;-87
2022/12/13 16:12:51;;;;;;;183.40;92.45;;;;;;;13.83;39.89;92383.97;4951117;28;20042;-90
2022/12/13 16:15:20;;;;;;;172.50;91.32;;;;;;;13.80;40.07;92398.56;4935295;28;20035;-92
2022/12/13 16:17:49;;;;;;;170.27;83.95;;;;;;;13.82;39.96;92402.25;4934903;29;20118;-92
2022/12/13 16:20:15;;;;;;;173.00;83.20;;;;;;;13.74;39.48;92395.88;4966669;28;20040;-94
2022/12/13 16:22:41;;;;;;;171.55;85.35;;;;;;;13.73;40.04;92397.13;4936383;29;20046;-94
2022/12/13 16:25:10;;;;;;;157.60;82.47;;;;;;;13.78;39.76;92398.31;4916196;28;20036;-91
2022/12/13 16:27:36;;;;;;;154.68;75.40;;;;;;;13.77;39.57;92408.44;4950449;28;20037;-90
2022/12/13 16:30:13;;;;;;;132.40;75.22;;;;;;;13.84;39.46;92399.75;4934777;29;20059;-91
2022/12/13 16:32:38;;;;;;;142.63;75.10;;;;;;;13.77;39.89;92385.97;4931843;29;20035;-90
2022/12/13 16:35:04;;;;;;;142.75;71.63;;;;;;;13.80;39.88;92404.72;4949507;28;20090;-89
2022/12/13 16:37:29;;;;;;;132.75;65.88;;;;;;;13.67;39.72;92399.88;4964029;28;20043;-94
2022/12/13 16:39:55;;;;;;;142.23;71.68;;;;;;;13.62;39.63;92403.38;4917290;29;20059;-91
2022/12/13 16:42:22;;;;;;;132.85;67.90;;;;;;;13.65;39.20;92407.03;4916082;29;20060;-90
2022/12/13 16:44:47;;;;;;;119.88;66.35;;;;;;;13.63;39.62;92404.84;4937361;29;20056;-90
2022/12/13 16:47:13;;;;;;;111.47;58.85;;;;;;;13.69;39.46;92407.50;4966866;28;20043;-89
2022/12/13 16:49:38;;;;;;;128.00;65.82;;;;;;;13.64;39.57;92409.00;4935859;29;20146;-93
2022/12/13 16:52:06;;;;;;;111.57;62.00;;;;;;;13.63;39.79;92421.13;4964715;28;20047;-88
2022/12/13 16:54:32;;;;;;;147.57;74.82;;;;;;;13.60;39.60;92408.56;4950085;28;20170;-94
2022/12/13 16:56:57;;;;;;;139.60;71.85;;;;;;;13.72;39.43;92406.50;4950905;28;20036;-93
2022/12/13 16:59:24;;;;;;;134.52;71.63;;;;;;;13.66;39.70;92400.38;4951212;28;20039;-91
2022/12/13 17:01:49;;;;;;;121.57;65.85;;;;;;;13.61;40.32;92409.31;4966539;28;20051;-91
2022/12/13 17:04:19;;;;;;;127.82;65.18;;;;;;;13.61;39.69;92414.72;4970765;28;20044;-90
2022/12/13 17:06:45;;;;;;;123.50;63.47;;;;;;;13.60;40.26;92416.72;4964744;28;20043;-88
2022/12/13 17:09:10;;;;;;;123.40;66.60;;;;;;;13.59;39.98;92417.94;4968754;28;20047;-91
2022/12/13 17:11:38;;;;;;;119.85;65.88;;;;;;;13.62;39.98;92405.34;4952028;28;20039;-92
2022/12/13 17:14:04;;;;;;;126.53;63.55;;;;;;;13.67;40.44;92409.97;4935929;28;20039;-91
2022/12/13 17:16:30;;;;;;;121.35;64.25;;;;;;;13.72;40.11;92404.53;4934092;29;20492;-88
2022/12/13 17:18:55;;;;;;;115.95;60.42;;;;;;;13.75;40.52;92385.75;4963237;28;20143;-92
2022/12/13 17:21:22;;;;;;;108.63;57.92;;;;;;;13.66;40.46;92390.25;4925929;29;20078;-92
2022/12/13 17:23:53;;;;;;;107.97;59.08;;;;;;;13.64;40.31;92390.00;4943899;28;20043;-92
2022/12/13 17:26:18;;;;;;;105.50;57.78;;;;;;;13.67;40.48;92391.72;4963311;28;20047;-92
2022/12/13 17:28:45;;;;;;;121.10;65.55;;;;;;;13.63;40.31;92396.69;4950957;28;20456;-90
2022/12/13 17:31:11;;;;;;;121.40;68.55;;;;;;;13.69;39.99;92400.09;4949032;28;20055;-92
2022/12/13 17:33:37;;;;;;;112.18;60.47;;;;;;;13.64;40.44;92394.72;4914949;29;20043;-91
2022/12/13 17:36:03;;;;;;;112.78;63.55;;;;;;;13.62;40.03;92389.78;4930671;28;20052;-90
2022/12/13 17:38:29;;;;;;;119.53;60.85;;;;;;;13.75;40.47;92388.47;4945000;28;20044;-92
2022/12/13 17:40:54;;;;;;;117.05;62.15;;;;;;;13.70;40.49;92395.41;4919325;29;20054;-95
2022/12/13 17:43:20;;;;;;;122.07;68.90;;;;;;;13.63;40.40;92391.28;4957168;28;20077;-91
2022/12/13 17:45:46;;;;;;;148.32;74.28;;;;;;;13.59;40.39;92379.19;4909410;29;20036;-91
2022/12/13 17:48:12;;;;;;;127.78;75.57;;;;;;;13.62;40.46;92378.19;4933672;28;20061;-91
2022/12/13 17:50:38;;;;;;;135.00;75.97;;;;;;;13.70;39.88;92379.84;4963425;28;20040;-92
2022/12/13 17:53:03;;;;;;;149.35;81.78;;;;;;;13.71;40.16;92375.16;4952838;28;20062;-91
2022/12/13 17:55:32;;;;;;;143.40;81.97;;;;;;;13.63;40.48;92372.25;4967553;28;20042;-93
2022/12/13 17:57:57;;;;;;;133.13;77.43;;;;;;;13.67;40.46;92374.69;4989741;28;20039;-91
2022/12/13 18:00:22;;;;;;;140.82;80.60;;;;;;;13.65;40.26;92363.59;4955876;28;20094;-90
2022/12/13 18:02:48;;;;;;;136.02;79.72;;;;;;;13.61;39.96;92366.59;4952840;28;20445;-91
2022/12/13 18:05:16;;;;;;;139.10;81.55;;;;;;;13.65;40.43;92369.00;4954147;28;20062;-90
2022/12/13 18:07:41;;;;;;;140.40;80.57;;;;;;;13.62;40.26;92362.63;4945084;28;20513;-93
2022/12/13 18:10:08;;;;;;;130.52;77.10;;;;;;;13.59;40.64;92362.91;4969030;28;20079;-87
2022/12/13 18:12:33;;;;;;;128.02;73.22;;;;;;;13.65;39.99;92360.88;4937823;28;20089;-91
2022/12/13 18:14:58;;;;;;;129.70;76.07;;;;;;;13.63;40.42;92371.53;4968185;28;20035;-92
2022/12/13 18:17:24;;;;;;;124.70;76.75;;;;;;;13.66;40.50;92370.50;4935420;28;20074;-92
2022/12/13 18:19:53;;;;;;;125.43;72.35;;;;;;;13.62;40.52;92378.19;4952720;28;20043;-92
2022/12/13 18:22:18;;;;;;;120.95;70.68;;;;;;;13.57;40.26;92373.53;4968104;28;20086;-91
2022/12/13 18:24:44;;;;;;;116.70;72.38;;;;;;;13.59;40.36;92376.47;4948795;28;20040;-91
2022/12/13 18:27:09;;;;;;;114.88;69.53;;;;;;;13.55;40.39;92376.75;4948706;28;20363;-90
2022/12/13 18:29:35;;;;;;;119.18;70.80;;;;;;;13.57;40.58;92376.25;4935934;28;20039;-91
2022/12/13 18:32:00;;;;;;;118.40;70.88;;;;;;;13.56;40.29;92364.66;4932507;28;20044;-90
2022/12/13 18:34:25;;;;;;;110.72;68.88;;;;;;;13.55;40.73;92351.56;4987651;28;20049;-90
2022/12/13 18:36:51;;;;;;;112.30;67.50;;;;;;;13.56;40.65;92353.78;4952375;28;20055;-92
2022/12/13 18:39:16;;;;;;;112.45;66.47;;;;;;;13.55;40.73;92357.75;4976873;28;20043;-91
2022/12/13 18:41:42;;;;;;;106.20;65.57;;;;;;;13.55;40.64;92346.88;4958143;28;20042;-90
2022/12/13 18:44:09;;;;;;;94.10;59.45;;;;;;;13.62;40.45;92351.78;4963808;28;20411;-90
2022/12/13 18:46:35;;;;;;;99.75;59.83;;;;;;;13.53;40.37;92352.09;4980294;28;20118;-90
2022/12/13 18:49:01;;;;;;;96.55;61.17;;;;;;;13.55;40.58;92355.03;4983212;28;20402;-91
2022/12/13 18:51:26;;;;;;;98.35;59.83;;;;;;;13.56;40.71;92350.34;4986693;28;20053;-92
2022/12/13 18:53:52;;;;;;;96.40;57.95;;;;;;;13.54;40.37;92358.97;4986421;28;20039;-92
2022/12/13 18:56:17;;;;;;;91.88;56.88;;;;;;;13.55;40.35;92349.59;4986628;28;20549;-91
2022/12/13 18:58:43;;;;;;;87.32;55.58;;;;;;;13.53;40.64;92356.78;4995848;28;20050;-91
2022/12/13 19:01:09;;;;;;;95.97;58.58;;;;;;;13.52;40.78;92358.75;4947439;28;20063;-91
2022/12/13 19:03:35;;;;;;;94.40;55.22;;;;;;;13.62;40.44;92356.47;4954357;28;20110;-91
2022/12/13 19:06:01;;;;;;;84.82;53.15;;;;;;;13.53;40.68;92357.50;4967365;28;20106;-92
2022/12/13 19:08:27;;;;;;;91.03;52.80;;;;;;;13.52;40.92;92355.28;4966648;28;20110;-90
2022/12/13 19:10:55;;;;;;;79.55;52.67;;;;;;;13.51;40.40;92353.81;4997235;28;20050;-93
2022/12/13 19:13:22;;;;;;;84.68;51.35;;;;;;;13.50;40.83;92358.50;4963432;28;20074;-91
2022/12/13 19:15:48;;;;;;;80.38;50.38;;;;;;;13.53;40.57;92354.78;4963080;28;20067;-91
2022/12/13 19:18:13;;;;;;;83.72;49.95;;;;;;;13.52;40.82;92347.16;4982056;28;20054;-89
2022/12/13 19:20:45;;;;;;;76.47;48.97;;;;;;;13.53;40.68;92360.22;4963971;28;20123;-91
2022/12/13 19:23:11;;;;;;;75.43;48.13;;;;;;;13.51;40.92;92360.00;4981257;28;20047;-91
2022/12/13 19:25:36;;;;;;;72.78;48.53;;;;;;;13.48;40.68;92365.69;4967382;28;20043;-90
2022/12/13 19:28:01;;;;;;;74.65;48.10;;;;;;;13.48;40.73;92365.69;4967321;28;20039;-91
2022/12/13 19:30:27;;;;;;;74.45;45.55;;;;;;;13.56;40.86;92359.22;4969644;28;20062;-91
2022/12/13 19:32:52;;;;;;;75.18;45.88;;;;;;;13.48;40.38;92344.69;4986286;28;20544;-91
2022/12/13 19:35:18;;;;;;;68.40;44.75;;;;;;;13.46;41.02;92358.03;4949908;28;20054;-91
2022/12/13 19:37:43;;;;;;;66.28;44.22;;;;;;;13.49;40.67;92346.19;4950802;28;20035;-92
2022/12/13 19:40:09;;;;;;;70.10;42.63;;;;;;;13.48;40.55;92347.41;4966200;28;20378;-89
2022/12/13 19:42:34;;;;;;;68.10;43.75;;;;;;;13.46;40.48;92349.91;4934946;29;20031;-92
2022/12/13 19:44:59;;;;;;;60.83;42.17;;;;;;;13.44;40.41;92340.78;4947423;28;20659;-92
2022/12/13 19:47:25;;;;;;;64.85;40.63;;;;;;;13.48;40.46;92346.69;4949929;28;20035;-91
2022/12/13 19:49:50;;;;;;;66.00;40.03;;;;;;;13.47;40.73;92348.66;4949656;28;20040;-91
2022/12/13 19:52:16;;;;;;;62.17;40.00;;;;;;;13.48;41.04;92354.81;4968008;28;20069;-90
2022/12/13 19:54:41;;;;;;;58.13;38.00;;;;;;;13.47;40.96;92345.22;4951919;28;20413;-92
2022/12/13 19:57:06;;;;;;;57.67;38.30;;;;;;;13.44;40.41;92344.22;4969319;28;20050;-89
2022/12/13 19:59:32;;;;;;;58.20;37.63;;;;;;;13.48;40.68;92333.09;4974275;28;20046;-92
2022/12/13 20:01:57;;;;;;;59.97;38.33;;;;;;;13.54;40.07;92334.56;4949077;28;20038;-90
2022/12/13 20:04:23;;;;;;;58.08;37.17;;;;;;;13.52;40.59;92333.56;4968693;28;20042;-90
2022/12/13 20:06:48;;;;;;;47.88;33.28;;;;;;;13.54;40.51;92337.25;4969478;28;20027;-93
2022/12/13 20:09:14;;;;;;;60.95;35.92;;;;;;;13.50;40.63;92328.66;4982438;28;20063;-91
2022/12/13 20:11:39;;;;;;;51.40;33.97;;;;;;;13.46;40.78;92327.44;4950611;28;20613;-91
2022/12/13 20:14:04;;;;;;;52.92;34.38;;;;;;;13.49;40.44;92327.19;4955336;28;20043;-91
2022/12/13 20:16:30;;;;;;;52.55;34.30;;;;;;;13.49;40.59;92321.75;4985269;28;20046;-92
2022/12/13 20:18:57;;;;;;;49.67;33.60;;;;;;;13.49;40.60;92331.88;4978358;28;20050;-91
2022/12/13 20:21:22;;;;;;;48.35;31.95;;;;;;;13.48;40.43;92320.28;4943081;28;20054;-90
2022/12/13 20:23:47;;;;;;;53.63;33.45;;;;;;;13.46;40.61;92328.19;4967948;28;20056;-91
2022/12/13 20:26:13;;;;;;;54.65;32.55;;;;;;;13.49;40.55;92326.44;4969076;28;20038;-92
2022/12/13 20:28:39;;;;;;;47.75;30.20;;;;;;;13.47;40.36;92324.22;4967006;28;20038;-92
2022/12/13 20:31:06;;;;;;;50.35;31.45;;;;;;;13.48;40.82;92320.28;4965785;28;20063;-91
2022/12/13 20:33:31;;;;;;;47.47;30.17;;;;;;;13.43;40.42;92315.63;4991382;28;20039;-89
2022/12/13 20:36:03;;;;;;;44.88;29.27;;;;;;;13.47;40.27;92318.06;4979269;28;20445;-90
2022/12/13 20:38:28;;;;;;;42.47;28.98;;;;;;;13.49;40.61;92296.56;4948929;28;20155;-90
2022/12/13 20:40:57;;;;;;;40.50;28.42;;;;;;;13.48;40.61;92297.81;4966399;28;20519;-91
2022/12/13 20:43:22;;;;;;;44.78;29.95;;;;;;;13.45;40.28;92304.25;5000231;28;20039;-91
2022/12/13 20:45:48;;;;;;;40.15;27.83;;;;;;;13.46;40.34;92294.88;4968766;28;20041;-90
2022/12/13 20:48:13;;;;;;;43.70;29.27;;;;;;;13.43;40.10;92304.75;4961512;28;20086;-91
2022/12/13 20:50:38;;;;;;;41.22;27.45;;;;;;;13.42;40.69;92302.56;4951167;28;20054;-92
2022/12/13 20:53:04;;;;;;;39.25;26.15;;;;;;;13.42;40.52;92297.16;4966327;28;20473;-92
2022/12/13 20:55:30;;;;;;;37.13;26.45;;;;;;;13.42;40.76;92289.75;4964750;28;20054;-90
2022/12/13 20:57:55;;;;;;;41.75;27.08;;;;;;;13.42;40.62;92291.72;4982004;28;20035;-91